createdAt,value
2023-06-07T00:00:24.500Z,70.12
2023-06-07T00:01:24.477Z,70.66
2023-06-07T00:02:41.847Z,70.76
2023-06-07T00:03:26.586Z,70.66
2023-06-07T00:04:24.576Z,70.86
2023-06-07T00:05:24.437Z,70.89
2023-06-07T00:06:24.444Z,71.50
2023-06-07T00:07:24.440Z,71.80
2023-06-07T00:08:24.436Z,71.20
2023-06-07T00:09:24.459Z,70.39
2023-06-07T00:10:24.463Z,70.96
2023-06-07T00:11:24.424Z,70.56
2023-06-07T00:12:24.404Z,70.76
2023-06-07T00:13:24.430Z,70.56
2023-06-07T00:14:24.401Z,70.66
2023-06-07T00:15:24.397Z,70.86
2023-06-07T00:16:24.371Z,70.76
2023-06-07T00:17:24.506Z,70.76
2023-06-07T00:18:24.426Z,70.66
2023-06-07T00:19:24.361Z,70.76
2023-06-07T00:20:24.373Z,71.80
2023-06-07T00:21:24.369Z,71.83
2023-06-07T00:22:24.409Z,72.44
2023-06-07T00:23:24.362Z,72.03
2023-06-07T00:24:24.446Z,72.03
2023-06-07T00:25:24.365Z,72.24
2023-06-07T00:26:24.351Z,72.03
2023-06-07T00:27:24.334Z,72.24
2023-06-07T00:28:24.309Z,72.03
2023-06-07T00:29:24.312Z,72.00
2023-06-07T00:30:24.351Z,71.50
2023-06-07T00:31:24.318Z,71.50
2023-06-07T00:32:24.379Z,71.83
2023-06-07T00:33:24.306Z,72.20
2023-06-07T00:34:24.297Z,71.80
2023-06-07T00:35:24.283Z,72.03
2023-06-07T00:36:24.297Z,71.43
2023-06-07T00:37:24.264Z,72.10
2023-06-07T00:38:24.267Z,71.50
2023-06-07T00:39:24.236Z,70.96
2023-06-07T00:40:24.257Z,71.80
2023-06-07T00:41:24.243Z,72.00
2023-06-07T00:42:24.257Z,72.33
2023-06-07T00:43:24.212Z,72.44
2023-06-07T00:44:24.793Z,72.03
2023-06-07T00:45:24.246Z,72.03
2023-06-07T00:46:24.224Z,72.33
2023-06-07T00:47:24.240Z,72.24
2023-06-07T00:48:24.291Z,72.03
2023-06-07T00:49:24.220Z,72.33
2023-06-07T00:50:24.189Z,72.33
2023-06-07T00:51:24.176Z,72.13
2023-06-07T00:52:24.184Z,72.13
2023-06-07T00:53:24.213Z,72.33
2023-06-07T00:54:24.162Z,72.97
2023-06-07T00:55:24.145Z,73.78
2023-06-07T00:56:24.184Z,74.52
2023-06-07T00:57:24.161Z,74.82
2023-06-07T00:58:24.149Z,74.62
2023-06-07T00:59:24.126Z,74.85
2023-06-07T01:00:24.120Z,74.95
2023-06-07T01:01:24.137Z,75.99
2023-06-07T01:02:24.388Z,76.80
2023-06-07T01:03:24.178Z,76.70
2023-06-07T01:04:24.093Z,77.04
2023-06-07T01:05:24.085Z,77.20
2023-06-07T01:06:24.091Z,77.44
2023-06-07T01:07:24.118Z,77.31
2023-06-07T01:08:24.108Z,76.90
2023-06-07T01:09:24.072Z,76.87
2023-06-07T01:10:24.082Z,76.46
2023-06-07T01:11:24.088Z,76.46
2023-06-07T01:12:24.051Z,76.56
2023-06-07T01:13:24.049Z,75.92
2023-06-07T01:14:24.056Z,75.09
2023-06-07T01:15:24.117Z,74.98
2023-06-07T01:16:24.081Z,74.88
2023-06-07T01:17:24.030Z,74.98
2023-06-07T01:18:24.032Z,74.58
2023-06-07T01:19:24.109Z,75.29
2023-06-07T01:20:24.031Z,74.98
2023-06-07T01:21:23.999Z,75.09
2023-06-07T01:22:25.032Z,74.68
2023-06-07T01:23:24.018Z,74.04
2023-06-07T01:24:23.986Z,74.44
2023-06-07T01:25:24.045Z,73.64
2023-06-07T01:26:23.977Z,73.54
2023-06-07T01:27:23.982Z,74.01
2023-06-07T01:28:23.991Z,73.34
2023-06-07T01:29:23.984Z,73.54
2023-06-07T01:30:23.965Z,73.00
2023-06-07T01:31:23.990Z,72.77
2023-06-07T01:32:23.970Z,71.86
2023-06-07T01:33:23.960Z,72.17
2023-06-07T01:34:23.934Z,72.60
2023-06-07T01:35:23.934Z,72.50
2023-06-07T01:36:23.937Z,72.37
2023-06-07T01:37:23.901Z,71.97
2023-06-07T01:38:23.920Z,72.27
2023-06-07T01:39:23.899Z,72.37
2023-06-07T01:40:23.895Z,72.37
2023-06-07T01:41:23.897Z,72.17
2023-06-07T01:42:23.894Z,72.27
2023-06-07T01:43:23.896Z,71.97
2023-06-07T01:44:23.860Z,71.63
2023-06-07T01:45:23.858Z,72.03
2023-06-07T01:46:23.950Z,71.73
2023-06-07T01:47:23.968Z,71.53
2023-06-07T01:48:23.877Z,71.63
2023-06-07T01:49:23.848Z,71.06
2023-06-07T01:50:23.860Z,71.13
2023-06-07T01:51:23.835Z,71.33
2023-06-07T01:52:23.813Z,71.86
2023-06-07T01:53:23.809Z,71.33
2023-06-07T01:54:23.799Z,71.66
2023-06-07T01:55:23.803Z,71.86
2023-06-07T01:56:23.874Z,71.77
2023-06-07T01:57:23.780Z,71.56
2023-06-07T01:58:23.794Z,70.63
2023-06-07T01:59:23.775Z,71.13
2023-06-07T02:00:23.773Z,71.56
2023-06-07T02:01:23.812Z,71.56
2023-06-07T02:02:23.778Z,71.86
2023-06-07T02:03:23.789Z,71.77
2023-06-07T02:04:23.771Z,71.56
2023-06-07T02:05:23.823Z,71.77
2023-06-07T02:06:23.736Z,71.66
2023-06-07T02:07:23.747Z,71.33
2023-06-07T02:08:23.718Z,71.66
2023-06-07T02:09:23.747Z,72.30
2023-06-07T02:10:23.706Z,72.00
2023-06-07T02:11:23.737Z,71.66
2023-06-07T02:12:23.732Z,72.06
2023-06-07T02:13:23.691Z,71.77
2023-06-07T02:14:23.717Z,71.77
2023-06-07T02:15:23.731Z,71.47
2023-06-07T02:16:23.679Z,70.56
2023-06-07T02:17:23.835Z,72.10
2023-06-07T02:18:23.905Z,71.47
2023-06-07T02:19:23.678Z,71.50
2023-06-07T02:20:23.651Z,72.30
2023-06-07T02:21:23.800Z,71.90
2023-06-07T02:22:23.649Z,71.50
2023-06-07T02:23:23.721Z,71.40
2023-06-07T02:24:23.632Z,71.50
2023-06-07T02:25:23.662Z,72.06
2023-06-07T02:26:23.608Z,71.77
2023-06-07T02:27:23.630Z,71.77
2023-06-07T02:28:23.631Z,70.96
2023-06-07T02:29:23.618Z,70.86
2023-06-07T02:30:23.585Z,70.46
2023-06-07T02:31:23.625Z,70.16
2023-06-07T02:32:23.604Z,70.03
2023-06-07T02:33:23.585Z,69.62
2023-06-07T02:34:23.786Z,69.42
2023-06-07T02:35:23.590Z,68.82
2023-06-07T02:36:23.579Z,69.02
2023-06-07T02:37:23.560Z,68.82
2023-06-07T02:38:23.548Z,68.92
2023-06-07T02:39:23.535Z,68.39
2023-06-07T02:40:23.559Z,68.32
2023-06-07T02:41:23.588Z,68.08
2023-06-07T02:42:23.550Z,68.32
2023-06-07T02:43:23.517Z,68.52
2023-06-07T02:44:23.527Z,68.02
2023-06-07T02:45:23.518Z,67.61
2023-06-07T02:46:23.601Z,67.95
2023-06-07T02:47:23.498Z,67.85
2023-06-07T02:48:23.509Z,67.95
2023-06-07T02:49:23.491Z,68.15
2023-06-07T02:50:23.466Z,69.15
2023-06-07T02:51:23.474Z,68.72
2023-06-07T02:52:23.461Z,69.35
2023-06-07T02:53:23.465Z,70.36
2023-06-07T02:54:23.508Z,71.00
2023-06-07T02:55:23.442Z,70.56
2023-06-07T02:56:23.457Z,70.76
2023-06-07T02:57:23.471Z,70.86
2023-06-07T02:58:23.410Z,70.76
2023-06-07T02:59:23.404Z,70.26
2023-06-07T03:00:23.403Z,70.76
2023-06-07T03:01:23.468Z,71.77
2023-06-07T03:02:23.488Z,71.97
2023-06-07T03:03:23.631Z,72.00
2023-06-07T03:04:23.387Z,72.40
2023-06-07T03:05:23.366Z,72.90
2023-06-07T03:06:23.378Z,72.00
2023-06-07T03:07:23.403Z,72.00
2023-06-07T03:08:23.386Z,72.40
2023-06-07T03:09:23.375Z,72.13
2023-06-07T03:10:23.348Z,73.24
2023-06-07T03:11:23.436Z,72.40
2023-06-07T03:12:24.232Z,73.24
2023-06-07T03:13:23.340Z,72.53
2023-06-07T03:14:23.356Z,73.84
2023-06-07T03:15:23.380Z,72.94
2023-06-07T03:16:23.346Z,72.44
2023-06-07T03:17:23.343Z,73.74
2023-06-07T03:18:23.313Z,73.98
2023-06-07T03:19:23.325Z,74.24
2023-06-07T03:20:23.324Z,74.11
2023-06-07T03:21:23.306Z,73.44
2023-06-07T03:22:23.283Z,73.24
2023-06-07T03:23:23.321Z,74.68
2023-06-07T03:24:23.303Z,74.78
2023-06-07T03:25:23.312Z,74.88
2023-06-07T03:26:23.258Z,74.35
2023-06-07T03:27:23.257Z,74.71
2023-06-07T03:28:23.262Z,74.41
2023-06-07T03:29:24.269Z,73.97
2023-06-07T03:30:23.263Z,74.18
2023-06-07T03:31:23.294Z,76.18
2023-06-07T03:32:23.262Z,75.38
2023-06-07T03:33:23.212Z,74.68
2023-06-07T03:34:23.213Z,74.37
2023-06-07T03:35:23.265Z,75.14
2023-06-07T03:36:23.201Z,73.84
2023-06-07T03:37:23.436Z,74.04
2023-06-07T03:38:23.234Z,74.74
2023-06-07T03:39:23.234Z,74.94
2023-06-07T03:40:23.184Z,74.84
2023-06-07T03:41:23.216Z,74.34
2023-06-07T03:42:23.152Z,74.24
2023-06-07T03:43:23.209Z,74.64
2023-06-07T03:44:23.172Z,74.74
2023-06-07T03:45:23.134Z,74.54
2023-06-07T03:46:23.153Z,72.83
2023-06-07T03:47:23.219Z,73.64
2023-06-07T03:48:23.266Z,73.84
2023-06-07T03:49:23.155Z,73.13
2023-06-07T03:50:23.126Z,73.74
2023-06-07T03:51:23.124Z,73.80
2023-06-07T03:52:23.117Z,73.40
2023-06-07T03:53:23.134Z,73.30
2023-06-07T03:54:23.110Z,73.90
2023-06-07T03:55:23.092Z,72.24
2023-06-07T03:56:23.077Z,73.00
2023-06-07T03:57:23.066Z,73.40
2023-06-07T03:58:23.096Z,74.01
2023-06-07T03:59:23.095Z,73.20
2023-06-07T04:00:23.071Z,72.80
2023-06-07T04:01:23.040Z,72.00
2023-06-07T04:02:23.094Z,71.70
2023-06-07T04:03:23.178Z,71.90
2023-06-07T04:04:23.093Z,73.50
2023-06-07T04:05:23.025Z,72.50
2023-06-07T04:06:23.078Z,73.00
2023-06-07T04:07:23.004Z,71.66
2023-06-07T04:08:23.004Z,71.90
2023-06-07T04:09:22.984Z,71.90
2023-06-07T04:10:23.026Z,72.30
2023-06-07T04:11:23.003Z,71.50
2023-06-07T04:12:22.970Z,71.80
2023-06-07T04:13:22.995Z,72.30
2023-06-07T04:14:22.993Z,72.27
2023-06-07T04:15:22.986Z,70.79
2023-06-07T04:16:22.995Z,71.80
2023-06-07T04:17:22.968Z,71.86
2023-06-07T04:18:22.944Z,71.96
2023-06-07T04:19:22.936Z,71.66
2023-06-07T04:20:22.948Z,71.77
2023-06-07T04:21:22.937Z,71.63
2023-06-07T04:22:22.905Z,71.56
2023-06-07T04:23:23.797Z,70.56
2023-06-07T04:24:23.008Z,70.46
2023-06-07T04:25:22.920Z,71.86
2023-06-07T04:26:22.947Z,71.96
2023-06-07T04:27:22.897Z,70.46
2023-06-07T04:28:22.885Z,70.53
2023-06-07T04:29:22.871Z,70.76
2023-06-07T04:30:22.844Z,70.59
2023-06-07T04:31:22.894Z,71.70
2023-06-07T04:32:22.923Z,71.70
2023-06-07T04:33:22.849Z,71.50
2023-06-07T04:34:22.850Z,71.73
2023-06-07T04:35:22.843Z,71.39
2023-06-07T04:36:22.823Z,71.53
2023-06-07T04:37:22.841Z,72.13
2023-06-07T04:38:23.681Z,71.73
2023-06-07T04:39:23.836Z,71.80
2023-06-07T04:40:22.796Z,71.39
2023-06-07T04:41:22.805Z,70.69
2023-06-07T04:42:22.795Z,70.50
2023-06-07T04:43:22.781Z,71.73
2023-06-07T04:44:22.792Z,71.53
2023-06-07T04:45:22.767Z,70.69
2023-06-07T04:46:22.799Z,70.50
2023-06-07T04:47:22.784Z,70.83
2023-06-07T04:48:22.777Z,71.33
2023-06-07T04:49:25.404Z,70.53
2023-06-07T04:50:23.694Z,71.86
2023-06-07T04:51:22.727Z,71.86
2023-06-07T04:52:22.788Z,71.83
2023-06-07T04:53:22.706Z,71.26
2023-06-07T04:54:22.781Z,71.83
2023-06-07T04:55:22.775Z,70.69
2023-06-07T04:56:22.724Z,70.63
2023-06-07T04:57:22.740Z,70.63
2023-06-07T04:58:22.818Z,72.17
2023-06-07T04:59:22.694Z,72.06
2023-06-07T05:00:22.690Z,72.24
2023-06-07T05:01:22.738Z,71.83
2023-06-07T05:02:22.732Z,72.24
2023-06-07T05:03:22.940Z,71.63
2023-06-07T05:04:22.639Z,70.59
2023-06-07T05:05:22.726Z,71.00
2023-06-07T05:06:22.665Z,71.93
2023-06-07T05:07:22.645Z,71.47
2023-06-07T05:08:22.637Z,72.17
2023-06-07T05:09:22.702Z,71.77
2023-06-07T05:10:22.738Z,71.97
2023-06-07T05:11:22.625Z,71.97
2023-06-07T05:12:22.628Z,71.77
2023-06-07T05:13:22.584Z,71.70
2023-06-07T05:14:22.618Z,70.53
2023-06-07T05:15:22.584Z,72.24
2023-06-07T05:16:22.703Z,71.23
2023-06-07T05:17:22.549Z,71.33
2023-06-07T05:18:22.564Z,71.13
2023-06-07T05:19:22.554Z,71.77
2023-06-07T05:20:22.561Z,71.83
2023-06-07T05:21:22.538Z,71.47
2023-06-07T05:22:22.541Z,71.47
2023-06-07T05:23:22.523Z,72.24
2023-06-07T05:24:22.607Z,71.23
2023-06-07T05:25:22.529Z,70.69
2023-06-07T05:26:22.511Z,70.69
2023-06-07T05:27:22.635Z,70.53
2023-06-07T05:28:22.507Z,70.73
2023-06-07T05:29:22.470Z,70.59
2023-06-07T05:30:22.477Z,70.79
2023-06-07T05:31:22.591Z,70.66
2023-06-07T05:32:22.505Z,70.23
2023-06-07T05:33:22.463Z,69.73
2023-06-07T05:34:22.576Z,69.99
2023-06-07T05:35:22.449Z,70.53
2023-06-07T05:36:22.454Z,70.69
2023-06-07T05:37:22.457Z,70.79
2023-06-07T05:38:22.512Z,70.26
2023-06-07T05:39:22.471Z,70.59
2023-06-07T05:40:22.398Z,70.50
2023-06-07T05:41:22.421Z,70.56
2023-06-07T05:42:22.422Z,71.70
2023-06-07T05:43:22.419Z,71.09
2023-06-07T05:44:22.469Z,70.59
2023-06-07T05:45:22.376Z,70.59
2023-06-07T05:46:22.398Z,70.29
2023-06-07T05:47:22.367Z,70.59
2023-06-07T05:48:22.371Z,71.39
2023-06-07T05:49:22.378Z,70.69
2023-06-07T05:50:22.402Z,70.59
2023-06-07T05:51:22.358Z,70.50
2023-06-07T05:52:22.334Z,70.59
2023-06-07T05:53:22.385Z,70.76
2023-06-07T05:54:22.347Z,70.50
2023-06-07T05:55:22.303Z,70.50
2023-06-07T05:56:22.309Z,72.24
2023-06-07T05:57:22.282Z,72.13
2023-06-07T05:58:22.292Z,71.63
2023-06-07T05:59:22.305Z,71.70
2023-06-07T06:00:22.298Z,70.46
2023-06-07T06:01:22.281Z,71.70
2023-06-07T06:02:22.319Z,71.59
2023-06-07T06:03:22.282Z,71.70
2023-06-07T06:04:22.320Z,72.20
2023-06-07T06:05:22.400Z,71.59
2023-06-07T06:06:22.269Z,71.66
2023-06-07T06:07:22.234Z,70.56
2023-06-07T06:08:22.253Z,70.76
2023-06-07T06:09:22.231Z,71.59
2023-06-07T06:10:22.239Z,71.36
2023-06-07T06:11:22.236Z,71.20
2023-06-07T06:12:22.213Z,70.56
2023-06-07T06:13:22.197Z,71.46
2023-06-07T06:14:22.791Z,71.66
2023-06-07T06:15:22.205Z,70.86
2023-06-07T06:16:22.231Z,70.43
2023-06-07T06:17:22.859Z,70.39
2023-06-07T06:18:22.174Z,70.26
2023-06-07T06:19:22.153Z,69.59
2023-06-07T06:20:22.169Z,70.46
2023-06-07T06:21:22.178Z,70.56
2023-06-07T06:22:22.162Z,70.53
2023-06-07T06:23:22.246Z,71.66
2023-06-07T06:24:22.153Z,71.63
2023-06-07T06:25:22.129Z,71.46
2023-06-07T06:26:22.129Z,70.69
2023-06-07T06:27:22.226Z,71.66
2023-06-07T06:28:22.137Z,70.96
2023-06-07T06:29:22.090Z,71.26
2023-06-07T06:30:22.224Z,71.66
2023-06-07T06:31:22.242Z,71.33
2023-06-07T06:32:22.109Z,71.66
2023-06-07T06:33:22.103Z,71.73
2023-06-07T06:34:22.041Z,70.89
2023-06-07T06:35:22.055Z,70.83
2023-06-07T06:36:22.111Z,71.43
2023-06-07T06:37:22.036Z,71.73
2023-06-07T06:38:22.025Z,71.73
2023-06-07T06:39:22.029Z,71.03
2023-06-07T06:40:22.023Z,71.00
2023-06-07T06:41:22.023Z,70.23
2023-06-07T06:42:22.001Z,68.59
2023-06-07T06:43:21.991Z,67.03
2023-06-07T06:44:21.996Z,66.63
2023-06-07T06:45:21.981Z,66.00
2023-06-07T06:46:22.784Z,65.93
2023-06-07T06:47:22.793Z,66.63
2023-06-07T06:48:21.954Z,66.76
2023-06-07T06:49:21.973Z,67.56
2023-06-07T06:50:32.993Z,67.13
2023-06-07T06:51:24.008Z,66.80
2023-06-07T06:52:21.921Z,67.03
2023-06-07T06:53:21.925Z,67.33
2023-06-07T06:54:21.902Z,67.33
2023-06-07T06:55:21.909Z,67.99
2023-06-07T06:56:21.916Z,68.82
2023-06-07T06:57:21.928Z,70.26
2023-06-07T06:58:21.903Z,69.09
2023-06-07T06:59:21.964Z,68.69
2023-06-07T07:00:21.913Z,69.66
2023-06-07T07:01:21.895Z,70.56
2023-06-07T07:02:22.043Z,70.76
2023-06-07T07:03:21.936Z,70.12
2023-06-07T07:04:22.000Z,69.43
2023-06-07T07:05:21.857Z,68.62
2023-06-07T07:06:21.884Z,69.32
2023-06-07T07:07:21.884Z,70.76
2023-06-07T07:08:21.935Z,70.46
2023-06-07T07:09:21.872Z,70.62
2023-06-07T07:10:21.927Z,69.43
2023-06-07T07:11:21.864Z,70.56
2023-06-07T07:12:21.840Z,70.46
2023-06-07T07:13:21.811Z,70.23
2023-06-07T07:14:21.912Z,70.16
2023-06-07T07:15:21.773Z,70.46
2023-06-07T07:16:21.809Z,70.46
2023-06-07T07:17:22.737Z,70.73
2023-06-07T07:18:22.065Z,70.29
2023-06-07T07:19:21.766Z,69.26
2023-06-07T07:20:21.759Z,69.06
2023-06-07T07:21:21.764Z,68.76
2023-06-07T07:22:21.800Z,67.80
2023-06-07T07:23:21.794Z,68.46
2023-06-07T07:24:21.795Z,68.66
2023-06-07T07:25:21.731Z,68.23
2023-06-07T07:26:21.721Z,68.03
2023-06-07T07:27:21.769Z,68.96
2023-06-07T07:28:21.725Z,68.46
2023-06-07T07:29:21.758Z,67.36
2023-06-07T07:30:21.752Z,66.13
2023-06-07T07:31:21.690Z,67.07
2023-06-07T07:32:21.727Z,67.26
2023-06-07T07:33:21.675Z,65.94
2023-06-07T07:34:21.688Z,67.07
2023-06-07T07:35:21.771Z,66.96
2023-06-07T07:36:21.655Z,67.00
2023-06-07T07:37:21.661Z,67.72
2023-06-07T07:38:21.669Z,67.93
2023-06-07T07:39:21.649Z,67.93
2023-06-07T07:40:21.663Z,68.03
2023-06-07T07:41:21.628Z,67.80
2023-06-07T07:42:21.617Z,67.30
2023-06-07T07:43:21.662Z,66.96
2023-06-07T07:44:21.609Z,67.16
2023-06-07T07:45:21.611Z,67.19
2023-06-07T07:46:21.617Z,67.26
2023-06-07T07:47:21.584Z,67.30
2023-06-07T07:48:21.671Z,67.80
2023-06-07T07:49:21.562Z,66.77
2023-06-07T07:50:21.616Z,66.13
2023-06-07T07:51:21.566Z,66.03
2023-06-07T07:52:22.769Z,65.97
2023-06-07T07:53:22.614Z,67.00
2023-06-07T07:54:21.551Z,67.10
2023-06-07T07:55:21.562Z,66.66
2023-06-07T07:56:21.555Z,66.03
2023-06-07T07:57:21.523Z,65.50
2023-06-07T07:58:21.562Z,63.95
2023-06-07T07:59:21.533Z,61.09
2023-06-07T08:00:21.522Z,60.09
2023-06-07T08:01:21.550Z,59.99
2023-06-07T08:02:21.572Z,59.39
2023-06-07T08:03:21.665Z,58.42
2023-06-07T08:04:21.540Z,58.92
2023-06-07T08:05:21.484Z,59.35
2023-06-07T08:06:21.546Z,58.92
2023-06-07T08:07:21.506Z,59.92
2023-06-07T08:08:21.471Z,59.72
2023-06-07T08:09:21.477Z,59.59
2023-06-07T08:10:21.530Z,58.83
2023-06-07T08:11:21.428Z,59.32
2023-06-07T08:12:22.497Z,59.22
2023-06-07T08:13:21.474Z,58.67
2023-06-07T08:14:21.461Z,58.07
2023-06-07T08:15:21.413Z,62.01
2023-06-07T08:16:21.518Z,62.51
2023-06-07T08:17:21.420Z,64.44
2023-06-07T08:18:21.392Z,64.54
2023-06-07T08:19:21.438Z,65.53
2023-06-07T08:20:21.456Z,65.83
2023-06-07T08:21:21.449Z,66.03
2023-06-07T08:22:21.412Z,65.97
2023-06-07T08:23:21.400Z,66.09
2023-06-07T08:24:21.455Z,66.60
2023-06-07T08:25:21.433Z,65.83
2023-06-07T08:26:21.365Z,65.80
2023-06-07T08:27:21.347Z,65.44
2023-06-07T08:28:21.341Z,65.70
2023-06-07T08:29:23.103Z,65.47
2023-06-07T08:30:22.375Z,65.08
2023-06-07T08:31:21.362Z,64.87
2023-06-07T08:32:21.316Z,64.25
2023-06-07T08:33:21.316Z,63.75
2023-06-07T08:34:21.326Z,64.87
2023-06-07T08:35:21.289Z,64.34
2023-06-07T08:36:22.327Z,61.06
2023-06-07T08:37:21.287Z,59.83
2023-06-07T08:38:21.381Z,58.20
2023-06-07T08:39:21.809Z,57.80
2023-06-07T08:40:21.307Z,58.57
2023-06-07T08:41:21.272Z,58.17
2023-06-07T08:42:21.244Z,56.77
2023-06-07T08:43:21.245Z,56.85
2023-06-07T08:44:21.322Z,56.45
2023-06-07T08:45:21.253Z,57.35
2023-06-07T08:46:21.304Z,57.24
2023-06-07T08:47:21.283Z,57.75
2023-06-07T08:48:21.214Z,57.35
2023-06-07T08:49:21.242Z,56.45
2023-06-07T08:50:21.288Z,55.65
2023-06-07T08:51:21.241Z,56.35
2023-06-07T08:52:21.177Z,56.32
2023-06-07T08:53:21.209Z,55.95
2023-06-07T08:54:21.269Z,56.05
2023-06-07T08:55:21.240Z,56.05
2023-06-07T08:56:21.208Z,55.48
2023-06-07T08:57:21.175Z,55.71
2023-06-07T08:58:21.164Z,57.33
2023-06-07T08:59:21.157Z,56.40
2023-06-07T09:00:21.185Z,56.87
2023-06-07T09:01:21.186Z,55.55
2023-06-07T09:02:21.189Z,55.88
2023-06-07T09:03:21.287Z,55.65
2023-06-07T09:04:21.190Z,55.76
2023-06-07T09:05:21.120Z,55.16
2023-06-07T09:06:21.133Z,55.35
2023-06-07T09:07:21.098Z,56.12
2023-06-07T09:08:21.100Z,54.68
2023-06-07T09:09:21.116Z,54.50
2023-06-07T09:10:21.115Z,55.00
2023-06-07T09:11:21.125Z,55.00
2023-06-07T09:12:21.090Z,54.38
2023-06-07T09:13:21.094Z,53.58
2023-06-07T09:14:21.047Z,54.50
2023-06-07T09:15:21.089Z,54.83
2023-06-07T09:16:21.169Z,54.41
2023-06-07T09:17:21.164Z,54.25
2023-06-07T09:18:21.196Z,53.76
2023-06-07T09:19:21.027Z,53.83
2023-06-07T09:20:21.033Z,53.44
2023-06-07T09:21:21.022Z,53.46
2023-06-07T09:22:21.057Z,53.76
2023-06-07T09:23:21.021Z,52.99
2023-06-07T09:24:21.065Z,53.26
2023-06-07T09:25:22.018Z,52.72
2023-06-07T09:26:20.995Z,52.59
2023-06-07T09:27:21.070Z,51.89
2023-06-07T09:28:20.991Z,52.59
2023-06-07T09:29:21.932Z,52.89
2023-06-07T09:30:22.012Z,53.31
2023-06-07T09:31:21.050Z,52.79
2023-06-07T09:32:21.033Z,52.79
2023-06-07T09:33:21.036Z,52.49
2023-06-07T09:34:21.028Z,52.59
2023-06-07T09:35:20.991Z,52.39
2023-06-07T09:36:20.992Z,52.59
2023-06-07T09:37:20.957Z,51.97
2023-06-07T09:38:20.947Z,52.59
2023-06-07T09:39:20.925Z,52.19
2023-06-07T09:40:20.939Z,52.89
2023-06-07T09:41:20.988Z,52.49
2023-06-07T09:42:21.048Z,53.44
2023-06-07T09:43:20.906Z,53.33
2023-06-07T09:44:20.895Z,54.13
2023-06-07T09:45:20.907Z,53.86
2023-06-07T09:46:20.986Z,54.46
2023-06-07T09:47:21.071Z,54.95
2023-06-07T09:48:20.990Z,54.46
2023-06-07T09:49:20.993Z,54.58
2023-06-07T09:50:20.966Z,54.55
2023-06-07T09:51:20.896Z,54.23
2023-06-07T09:52:20.854Z,54.85
2023-06-07T09:53:20.885Z,55.67
2023-06-07T09:54:20.842Z,56.49
2023-06-07T09:55:21.247Z,56.89
2023-06-07T09:56:21.866Z,56.89
2023-06-07T09:57:20.812Z,57.75
2023-06-07T09:58:20.960Z,57.45
2023-06-07T09:59:20.974Z,56.82
2023-06-07T10:00:20.846Z,56.32
2023-06-07T10:01:20.882Z,56.85
2023-06-07T10:02:20.831Z,56.85
2023-06-07T10:03:20.900Z,57.17
2023-06-07T10:04:20.815Z,57.80
2023-06-07T10:05:20.792Z,58.10
2023-06-07T10:06:20.762Z,58.29
2023-06-07T10:07:20.925Z,59.92
2023-06-07T10:08:20.832Z,61.11
2023-06-07T10:09:20.806Z,60.52
2023-06-07T10:10:20.851Z,63.15
2023-06-07T10:11:20.777Z,61.29
2023-06-07T10:12:20.749Z,61.09
2023-06-07T10:13:20.839Z,62.65
2023-06-07T10:14:20.925Z,63.15
2023-06-07T10:15:20.736Z,62.35
2023-06-07T10:16:20.874Z,63.65
2023-06-07T10:17:20.928Z,64.31
2023-06-07T10:18:20.774Z,63.22
2023-06-07T10:19:20.739Z,62.35
2023-06-07T10:20:20.786Z,62.40
2023-06-07T10:21:20.734Z,62.26
2023-06-07T10:22:20.691Z,62.99
2023-06-07T10:23:22.783Z,62.13
2023-06-07T10:24:20.808Z,60.69
2023-06-07T10:25:20.717Z,59.92
2023-06-07T10:26:20.733Z,60.14
2023-06-07T10:27:20.681Z,60.31
2023-06-07T10:28:20.696Z,58.83
2023-06-07T10:29:22.296Z,59.07
2023-06-07T10:30:21.662Z,56.56
2023-06-07T10:31:20.660Z,56.59
2023-06-07T10:32:20.651Z,56.71
2023-06-07T10:33:20.687Z,57.58
2023-06-07T10:34:20.640Z,57.48
2023-06-07T10:35:20.613Z,58.23
2023-06-07T10:36:20.683Z,58.56
2023-06-07T10:37:20.663Z,58.13
2023-06-07T10:38:20.604Z,58.16
2023-06-07T10:39:21.610Z,58.22
2023-06-07T10:40:20.596Z,57.89
2023-06-07T10:41:20.588Z,59.11
2023-06-07T10:42:20.583Z,57.96
2023-06-07T10:43:20.594Z,57.53
2023-06-07T10:44:20.545Z,55.74
2023-06-07T10:45:20.589Z,54.60
2023-06-07T10:46:20.748Z,52.69
2023-06-07T10:47:21.662Z,51.15
2023-06-07T10:48:20.639Z,50.56
2023-06-07T10:49:20.534Z,48.41
2023-06-07T10:50:20.582Z,50.31
2023-06-07T10:51:20.490Z,52.29
2023-06-07T10:52:20.687Z,51.92
2023-06-07T10:53:20.535Z,50.31
2023-06-07T10:54:20.506Z,53.31
2023-06-07T10:55:20.499Z,53.48
2023-06-07T10:56:20.526Z,52.49
2023-06-07T10:57:20.474Z,52.54
2023-06-07T10:58:20.523Z,50.81
2023-06-07T10:59:20.508Z,52.34
2023-06-07T11:00:20.452Z,52.59
2023-06-07T11:01:20.463Z,54.42
2023-06-07T11:02:20.595Z,53.92
2023-06-07T11:03:20.490Z,54.30
2023-06-07T11:04:20.559Z,56.64
2023-06-07T11:05:20.465Z,56.61
2023-06-07T11:06:20.428Z,54.13
2023-06-07T11:07:20.544Z,53.78
2023-06-07T11:08:20.407Z,52.73
2023-06-07T11:09:20.435Z,50.04
2023-06-07T11:10:20.430Z,48.37
2023-06-07T11:11:20.433Z,47.92
2023-06-07T11:12:20.394Z,48.41
2023-06-07T11:13:20.404Z,48.10
2023-06-07T11:14:20.362Z,47.97
2023-06-07T11:15:20.370Z,48.59
2023-06-07T11:16:20.408Z,48.51
2023-06-07T11:17:20.414Z,46.45
2023-06-07T11:18:20.395Z,46.53
2023-06-07T11:19:20.455Z,46.43
2023-06-07T11:20:20.380Z,46.03
2023-06-07T11:21:20.419Z,46.41
2023-06-07T11:22:20.364Z,45.87
2023-06-07T11:23:20.319Z,46.45
2023-06-07T11:24:20.586Z,46.47
2023-06-07T11:25:20.347Z,46.55
2023-06-07T11:26:20.319Z,48.32
2023-06-07T11:27:20.333Z,49.22
2023-06-07T11:28:20.287Z,48.93
2023-06-07T11:29:20.382Z,50.34
2023-06-07T11:30:20.339Z,50.16
2023-06-07T11:31:20.298Z,46.43
2023-06-07T11:32:20.355Z,45.89
2023-06-07T11:33:20.409Z,44.35
2023-06-07T11:34:20.506Z,45.10
2023-06-07T11:35:20.255Z,43.33
2023-06-07T11:36:20.754Z,43.27
2023-06-07T11:37:21.283Z,43.55
2023-06-07T11:38:20.384Z,44.30
2023-06-07T11:39:20.285Z,44.71
2023-06-07T11:40:20.243Z,46.77
2023-06-07T11:41:20.229Z,46.77
2023-06-07T11:42:20.210Z,46.81
2023-06-07T11:43:20.231Z,50.56
2023-06-07T11:44:20.253Z,47.75
2023-06-07T11:45:20.243Z,49.96
2023-06-07T11:46:20.202Z,48.22
2023-06-07T11:47:20.378Z,47.21
2023-06-07T11:48:20.249Z,48.24
2023-06-07T11:49:20.260Z,48.36
2023-06-07T11:50:20.208Z,48.66
2023-06-07T11:51:20.195Z,47.97
2023-06-07T11:52:20.234Z,48.41
2023-06-07T11:53:20.184Z,48.46
2023-06-07T11:54:20.176Z,48.88
2023-06-07T11:55:20.137Z,47.18
2023-06-07T11:56:20.164Z,44.98
2023-06-07T11:57:20.134Z,43.89
2023-06-07T11:58:20.124Z,44.58
2023-06-07T11:59:20.114Z,44.11
2023-06-07T12:00:20.223Z,43.91
2023-06-07T12:01:20.118Z,43.50
2023-06-07T12:02:20.202Z,43.26
2023-06-07T12:03:20.301Z,42.30
2023-06-07T12:04:20.206Z,42.38
2023-06-07T12:05:20.096Z,41.78
2023-06-07T12:06:20.140Z,41.77
2023-06-07T12:07:20.076Z,41.08
2023-06-07T12:08:20.105Z,42.93
2023-06-07T12:09:21.172Z,42.93
2023-06-07T12:10:20.053Z,44.03
2023-06-07T12:11:20.057Z,44.35
2023-06-07T12:12:20.188Z,44.59
2023-06-07T12:13:20.082Z,44.69
2023-06-07T12:14:20.053Z,46.48
2023-06-07T12:15:20.020Z,45.82
2023-06-07T12:16:20.085Z,45.10
2023-06-07T12:17:20.023Z,44.12
2023-06-07T12:18:20.010Z,46.26
2023-06-07T12:19:20.028Z,46.33
2023-06-07T12:20:20.005Z,45.96
2023-06-07T12:21:20.018Z,45.67
2023-06-07T12:22:20.161Z,46.78
2023-06-07T12:23:19.966Z,46.95
2023-06-07T12:24:20.001Z,46.08
2023-06-07T12:25:20.044Z,46.73
2023-06-07T12:26:20.073Z,45.84
2023-06-07T12:27:19.980Z,46.28
2023-06-07T12:28:19.955Z,46.85
2023-06-07T12:29:19.975Z,47.69
2023-06-07T12:30:19.935Z,47.52
2023-06-07T12:31:19.967Z,46.33
2023-06-07T12:32:20.041Z,46.88
2023-06-07T12:33:19.919Z,47.77
2023-06-07T12:34:19.917Z,48.50
2023-06-07T12:35:19.897Z,48.30
2023-06-07T12:36:19.885Z,48.18
2023-06-07T12:37:19.926Z,46.01
2023-06-07T12:38:19.952Z,44.96
2023-06-07T12:39:19.962Z,43.91
2023-06-07T12:40:19.937Z,42.57
2023-06-07T12:41:19.851Z,42.06
2023-06-07T12:42:19.873Z,40.82
2023-06-07T12:43:19.881Z,40.80
2023-06-07T12:44:19.852Z,41.88
2023-06-07T12:45:19.877Z,44.07
2023-06-07T12:46:19.905Z,46.01
2023-06-07T12:47:19.858Z,47.22
2023-06-07T12:48:20.030Z,46.93
2023-06-07T12:49:20.014Z,46.97
2023-06-07T12:50:19.842Z,48.28
2023-06-07T12:51:19.830Z,49.22
2023-06-07T12:52:19.840Z,49.29